Time;durP1;ratioP1;P1;durP2;ratioP2;P2;SDS_P1;SDS_P2;PMS_P1;PMS_P2;Temp;Humidity;BMP_temperature;BMP_pressure;BME280_temperature;BME280_humidity;BME280_pressure;Samples;Min_cycle;Max_cycle;Signal;HPM_P1;HPM_P2
2022/11/18 00:01:12;;;;;;;1.73;1.00;;;9.00;99.90;;;;;;5002574;28;20026;-69
2022/11/18 00:03:39;;;;;;;6.32;1.05;;;9.00;99.90;;;;;;5001530;28;20502;-69
2022/11/18 00:06:09;;;;;;;2.17;0.93;;;9.00;99.90;;;;;;4993564;28;20098;-69
2022/11/18 00:08:35;;;;;;;2.70;1.70;;;9.00;99.90;;;;;;4992948;28;20050;-69
2022/11/18 00:14:18;;;;;;;6.63;1.85;;;8.90;99.90;;;;;;4990260;28;20165;-68
2022/11/18 00:16:47;;;;;;;3.97;0.93;;;8.90;99.90;;;;;;5004829;28;20088;-68
2022/11/18 00:19:14;;;;;;;1.52;1.17;;;8.90;99.90;;;;;;5005821;28;20026;-68
2022/11/18 00:21:40;;;;;;;1.95;0.88;;;8.80;99.90;;;;;;5017771;28;20030;-69
2022/11/18 00:24:06;;;;;;;2.63;1.35;;;8.80;99.90;;;;;;4989559;28;20030;-69
2022/11/18 00:26:32;;;;;;;1.10;0.85;;;8.80;99.90;;;;;;5004301;28;20081;-69
2022/11/18 00:28:57;;;;;;;2.33;1.00;;;8.80;99.90;;;;;;5003334;28;20035;-68
2022/11/18 00:31:23;;;;;;;6.00;1.75;;;8.80;99.90;;;;;;5003683;28;20030;-70
2022/11/18 00:33:48;;;;;;;1.33;1.05;;;8.80;99.90;;;;;;5004572;28;20045;-69
2022/11/18 00:36:14;;;;;;;3.55;1.42;;;8.80;99.90;;;;;;5019541;28;20037;-68
2022/11/18 00:38:40;;;;;;;5.10;1.35;;;8.80;99.90;;;;;;4985318;28;20130;-68
2022/11/18 00:41:13;;;;;;;2.33;1.20;;;8.80;99.90;;;;;;5003467;28;20021;-69
2022/11/18 00:43:40;;;;;;;2.63;1.45;;;8.80;99.90;;;;;;5000880;28;20087;-69
2022/11/18 00:46:09;;;;;;;1.23;0.73;;;8.80;99.90;;;;;;4999983;28;20643;-69
2022/11/18 00:48:36;;;;;;;1.83;1.13;;;8.90;99.90;;;;;;4987695;28;20045;-69
2022/11/18 00:51:15;;;;;;;1.10;0.77;;;8.90;99.90;;;;;;5003411;28;20037;-69
2022/11/18 00:53:41;;;;;;;2.58;1.20;;;8.90;99.90;;;;;;5005634;28;20042;-69
2022/11/18 00:56:08;;;;;;;3.13;1.00;;;8.90;99.90;;;;;;4987086;28;20352;-69
2022/11/18 00:58:34;;;;;;;2.97;1.40;;;8.90;99.90;;;;;;5001743;28;20038;-69
2022/11/18 01:01:00;;;;;;;1.55;1.13;;;8.90;99.90;;;;;;5002253;28;20045;-69
2022/11/18 01:03:27;;;;;;;2.63;0.98;;;8.90;99.90;;;;;;5002983;28;20031;-69
2022/11/18 01:05:53;;;;;;;2.05;0.82;;;8.90;99.90;;;;;;4984943;28;20053;-69
2022/11/18 01:08:19;;;;;;;2.03;1.20;;;8.90;99.90;;;;;;5008114;28;20066;-69
2022/11/18 01:10:47;;;;;;;8.13;1.05;;;8.90;99.90;;;;;;5001136;28;20478;-69
2022/11/18 01:13:19;;;;;;;2.90;0.85;;;8.90;99.90;;;;;;5007752;28;20038;-69
2022/11/18 01:15:57;;;;;;;4.18;1.40;;;8.90;99.90;;;;;;4999853;28;20026;-69
2022/11/18 01:18:29;;;;;;;2.67;1.73;;;8.90;99.90;;;;;;5007302;28;20038;-69
2022/11/18 01:21:02;;;;;;;1.35;0.75;;;8.90;99.90;;;;;;5002568;28;20085;-69
2022/11/18 01:23:29;;;;;;;1.10;0.65;;;8.90;99.90;;;;;;5006876;28;20057;-69
2022/11/18 01:25:55;;;;;;;1.65;0.82;;;8.90;99.90;;;;;;5000999;28;20438;-69
2022/11/18 01:28:20;;;;;;;1.35;0.73;;;8.90;99.90;;;;;;5006196;28;20045;-69
2022/11/18 01:30:46;;;;;;;1.98;0.90;;;9.00;99.90;;;;;;5001190;28;20397;-69
2022/11/18 01:33:12;;;;;;;3.20;1.00;;;9.00;99.90;;;;;;5000036;28;20038;-69
2022/11/18 01:35:41;;;;;;;18.10;1.42;;;9.00;99.90;;;;;;4998932;28;20038;-69
2022/11/18 01:38:10;;;;;;;1.75;1.10;;;9.00;99.90;;;;;;4972459;28;20493;-68
2022/11/18 01:40:36;;;;;;;2.10;1.38;;;9.00;99.90;;;;;;4994978;28;20069;-68
2022/11/18 01:43:11;;;;;;;2.22;1.15;;;9.00;99.90;;;;;;5009173;28;20108;-69
2022/11/18 01:45:39;;;;;;;2.17;1.10;;;9.00;99.90;;;;;;4998998;28;20030;-69
2022/11/18 01:48:23;;;;;;;4.57;0.88;;;9.10;99.90;;;;;;5009303;28;20644;-69
2022/11/18 01:51:05;;;;;;;1.15;0.65;;;9.10;99.90;;;;;;5000033;28;20030;-69
2022/11/18 01:53:37;;;;;;;2.40;1.10;;;9.10;99.90;;;;;;5000899;28;20034;-69
2022/11/18 01:56:12;;;;;;;3.58;1.77;;;9.10;99.90;;;;;;5001750;28;20026;-69
2022/11/18 01:58:48;;;;;;;5.68;1.42;;;9.10;99.90;;;;;;4999329;28;20038;-69
2022/11/18 02:01:14;;;;;;;2.25;1.20;;;9.10;99.90;;;;;;4974653;28;20562;-69
2022/11/18 02:03:41;;;;;;;3.85;1.38;;;9.10;99.90;;;;;;5002937;28;20109;-69
2022/11/18 02:06:08;;;;;;;2.53;0.95;;;9.10;99.90;;;;;;4987871;28;20064;-69
2022/11/18 02:08:39;;;;;;;6.93;1.77;;;9.10;99.90;;;;;;4991826;28;20030;-69
2022/11/18 02:11:49;;;;;;;1.70;0.73;;;9.10;99.90;;;;;;5006049;28;20125;-69
2022/11/18 02:13:57;;;;;;;2.37;1.37;;;9.10;99.90;;;;;;4998280;28;20042;-69
2022/11/18 02:16:58;;;;;;;2.92;1.00;;;9.10;99.90;;;;;;5003577;28;20398;-69
2022/11/18 02:19:51;;;;;;;8.50;1.65;;;9.10;99.90;;;;;;4980238;28;20040;-69
2022/11/18 02:23:18;;;;;;;2.80;1.33;;;9.10;99.90;;;;;;4998031;28;20068;-69
2022/11/18 02:26:09;;;;;;;4.57;1.15;;;9.10;99.90;;;;;;4960672;28;20115;-69
2022/11/18 02:29:16;;;;;;;2.80;1.35;;;9.10;99.90;;;;;;4985742;28;20380;-69
2022/11/18 02:32:07;;;;;;;2.00;1.27;;;9.10;99.90;;;;;;4956891;28;20493;-69
2022/11/18 02:35:00;;;;;;;3.88;1.75;;;9.10;99.90;;;;;;4991521;28;20037;-69
2022/11/18 02:37:39;;;;;;;7.38;1.38;;;9.10;99.90;;;;;;5000237;28;20508;-69
2022/11/18 02:40:23;;;;;;;2.67;1.13;;;9.10;99.90;;;;;;5008447;23;20038;-68
2022/11/18 02:42:57;;;;;;;8.88;1.55;;;9.10;99.90;;;;;;5006232;28;20037;-68
2022/11/18 02:45:25;;;;;;;2.35;1.13;;;9.10;99.90;;;;;;4996425;28;20030;-68
2022/11/18 02:47:52;;;;;;;2.50;1.25;;;9.10;99.90;;;;;;5007463;28;20026;-69
2022/11/18 02:50:24;;;;;;;10.52;1.60;;;9.10;99.90;;;;;;4996206;28;20034;-68
2022/11/18 02:52:56;;;;;;;2.72;1.77;;;9.10;99.90;;;;;;5007508;28;20041;-68
2022/11/18 02:55:26;;;;;;;1.50;0.95;;;9.10;99.90;;;;;;4997209;28;20044;-68
2022/11/18 02:57:52;;;;;;;2.33;1.20;;;9.10;99.90;;;;;;4995570;28;20088;-69
2022/11/18 03:00:17;;;;;;;4.05;1.98;;;9.10;99.90;;;;;;5000329;28;20029;-68
2022/11/18 03:02:47;;;;;;;3.50;1.48;;;9.00;99.90;;;;;;5011567;28;20482;-68
2022/11/18 03:05:47;;;;;;;3.33;1.42;;;9.00;99.90;;;;;;5002837;28;20223;-67
2022/11/18 03:08:21;;;;;;;2.83;1.20;;;9.00;99.90;;;;;;4975295;28;20035;-69
2022/11/18 03:11:24;;;;;;;1.83;1.00;;;9.00;99.90;;;;;;5000509;28;20494;-69
2022/11/18 03:14:14;;;;;;;1.98;1.08;;;9.00;99.90;;;;;;4975274;28;20046;-69
2022/11/18 03:16:55;;;;;;;5.23;1.67;;;9.10;99.90;;;;;;4999874;28;20034;-69
2022/11/18 03:20:11;;;;;;;8.77;1.95;;;9.10;99.90;;;;;;4999523;28;20033;-70
2022/11/18 03:22:46;;;;;;;4.45;1.38;;;9.10;99.90;;;;;;4993354;28;20037;-69
2022/11/18 03:25:29;;;;;;;2.42;1.50;;;9.10;99.90;;;;;;5005157;28;20065;-69
2022/11/18 03:28:26;;;;;;;2.60;1.88;;;9.10;99.90;;;;;;5012958;28;20108;-69
2022/11/18 03:31:35;;;;;;;12.00;2.60;;;9.10;99.90;;;;;;4980496;28;20056;-69
2022/11/18 03:34:17;;;;;;;4.60;1.77;;;9.20;99.90;;;;;;5021769;28;20125;-69
2022/11/18 03:36:50;;;;;;;2.13;1.50;;;9.20;99.90;;;;;;4989102;28;20030;-68
2022/11/18 03:39:18;;;;;;;3.88;2.08;;;9.30;99.90;;;;;;5007758;28;20037;-69
2022/11/18 03:42:11;;;;;;;4.45;2.45;;;9.30;99.90;;;;;;5004338;28;20084;-69
2022/11/18 03:44:42;;;;;;;4.78;2.13;;;9.30;99.90;;;;;;5005078;28;20486;-69
2022/11/18 03:47:24;;;;;;;3.72;1.23;;;9.30;99.90;;;;;;4997529;28;20042;-69
2022/11/18 03:49:58;;;;;;;3.03;1.30;;;9.30;99.90;;;;;;5006553;28;20034;-69
2022/11/18 03:52:34;;;;;;;2.95;1.63;;;9.30;99.90;;;;;;5006992;28;20026;-69
2022/11/18 03:55:08;;;;;;;3.80;1.85;;;9.30;99.90;;;;;;5006493;28;20038;-69
2022/11/18 03:57:52;;;;;;;4.72;2.20;;;9.30;99.90;;;;;;5008246;28;20040;-69
2022/11/18 04:00:19;;;;;;;9.07;2.85;;;9.40;99.90;;;;;;5002547;28;20037;-68
2022/11/18 04:02:47;;;;;;;3.40;2.28;;;9.30;99.90;;;;;;5009230;28;20026;-69
2022/11/18 04:05:18;;;;;;;3.35;2.10;;;9.40;99.90;;;;;;5004253;28;20391;-69
2022/11/18 04:08:03;;;;;;;3.63;1.45;;;9.40;99.90;;;;;;5008899;28;20030;-68
2022/11/18 04:10:57;;;;;;;3.30;1.48;;;9.40;99.90;;;;;;4996238;28;20038;-68
2022/11/18 04:13:35;;;;;;;7.38;1.50;;;9.50;99.90;;;;;;4974399;28;20031;-68
2022/11/18 04:16:01;;;;;;;2.88;1.58;;;9.50;99.90;;;;;;5004898;28;20606;-69
2022/11/18 04:18:27;;;;;;;3.25;1.60;;;9.50;99.90;;;;;;4991502;28;20089;-69
2022/11/18 04:20:53;;;;;;;10.45;2.40;;;9.50;99.90;;;;;;5000543;28;20026;-68
2022/11/18 04:23:19;;;;;;;11.48;1.85;;;9.50;99.90;;;;;;5026761;28;20049;-68
2022/11/18 04:25:45;;;;;;;3.92;2.47;;;9.50;99.90;;;;;;5002405;28;20026;-69
2022/11/18 04:28:11;;;;;;;2.05;1.50;;;9.50;99.90;;;;;;5012057;28;20034;-69
2022/11/18 04:30:36;;;;;;;4.70;2.13;;;9.60;99.90;;;;;;5001479;28;20450;-69
2022/11/18 04:33:02;;;;;;;4.70;2.20;;;9.60;99.90;;;;;;5012682;28;20045;-69
2022/11/18 04:35:28;;;;;;;3.80;2.28;;;9.60;99.90;;;;;;5001354;28;20038;-67
2022/11/18 04:37:54;;;;;;;3.05;1.35;;;9.60;99.90;;;;;;5011377;28;20061;-68
2022/11/18 04:40:20;;;;;;;8.38;1.80;;;9.60;99.90;;;;;;5002176;28;20696;-68
2022/11/18 04:42:46;;;;;;;4.78;2.67;;;9.70;99.90;;;;;;5010315;28;20053;-69
2022/11/18 04:45:11;;;;;;;5.13;2.45;;;9.70;99.90;;;;;;5003791;28;20042;-69
2022/11/18 04:47:38;;;;;;;5.05;2.22;;;9.70;99.90;;;;;;5009351;28;20399;-69
2022/11/18 04:50:04;;;;;;;4.28;2.05;;;9.70;99.90;;;;;;5004463;28;20398;-69
2022/11/18 04:52:30;;;;;;;3.08;1.65;;;9.70;99.90;;;;;;5006982;28;20038;-68
2022/11/18 04:54:55;;;;;;;3.88;2.13;;;9.70;99.90;;;;;;5005690;28;20492;-69
2022/11/18 04:57:21;;;;;;;6.40;2.42;;;9.60;99.90;;;;;;5006673;28;20037;-69
2022/11/18 04:59:47;;;;;;;3.72;1.63;;;9.60;99.90;;;;;;5006210;28;20041;-69
2022/11/18 05:02:13;;;;;;;3.58;1.88;;;9.60;99.90;;;;;;5005560;28;20478;-68
2022/11/18 05:04:39;;;;;;;1.10;0.57;;;9.50;99.90;;;;;;5003492;28;20340;-69
2022/11/18 05:07:06;;;;;;;1.77;1.13;;;9.40;99.90;;;;;;5003139;28;20026;-68
2022/11/18 05:09:33;;;;;;;1.88;0.90;;;9.40;99.90;;;;;;5007296;28;20056;-68
2022/11/18 05:14:44;;;;;;;2.95;1.33;;;9.20;99.90;;;;;;5003106;28;20038;-67
2022/11/18 05:17:10;;;;;;;0.65;0.45;;;9.20;99.90;;;;;;4998804;28;20034;-68
2022/11/18 05:19:39;;;;;;;1.85;0.80;;;9.10;99.90;;;;;;4995728;28;20045;-68
2022/11/18 05:22:05;;;;;;;1.20;0.75;;;9.10;99.90;;;;;;5002310;28;20061;-67
2022/11/18 05:24:31;;;;;;;1.02;0.60;;;9.10;99.90;;;;;;5010467;28;20033;-68
2022/11/18 05:26:57;;;;;;;1.30;0.80;;;9.10;99.90;;;;;;4999716;28;20113;-68
2022/11/18 05:29:24;;;;;;;0.60;0.52;;;9.10;99.90;;;;;;4998879;28;20109;-67
2022/11/18 05:31:50;;;;;;;1.02;0.73;;;9.00;99.90;;;;;;5003155;28;20038;-67
2022/11/18 05:34:17;;;;;;;0.10;0.10;;;9.00;99.90;;;;;;4998795;28;20402;-67
2022/11/18 05:36:43;;;;;;;0.63;0.45;;;9.00;99.90;;;;;;4993972;28;20047;-67
2022/11/18 05:39:09;;;;;;;13.05;1.58;;;9.00;99.90;;;;;;5002407;28;20063;-67
2022/11/18 05:44:19;;;;;;;1.48;0.75;;;8.90;99.90;;;;;;4986716;28;20041;-67
2022/11/18 05:46:45;;;;;;;2.88;0.88;;;8.90;99.90;;;;;;5003644;28;20026;-67
2022/11/18 05:49:10;;;;;;;0.55;0.40;;;8.90;99.90;;;;;;4995305;28;20325;-67
2022/11/18 05:51:36;;;;;;;0.95;0.50;;;8.80;99.90;;;;;;4998252;28;20043;-66
2022/11/18 05:54:06;;;;;;;0.75;0.30;;;8.80;99.90;;;;;;4991294;28;20038;-67
2022/11/18 05:56:42;;;;;;;1.45;0.40;;;8.80;99.90;;;;;;4995577;28;20042;-67
2022/11/18 05:59:07;;;;;;;0.30;0.30;;;8.70;99.90;;;;;;4991367;28;20431;-67
2022/11/18 06:01:51;;;;;;;0.20;0.13;;;8.60;99.90;;;;;;4991377;28;20070;-67
2022/11/18 06:04:20;;;;;;;0.93;0.47;;;8.60;99.90;;;;;;4992023;28;20038;-67
2022/11/18 06:06:51;;;;;;;0.65;0.47;;;8.60;99.90;;;;;;4987745;28;20033;-67
2022/11/18 06:09:21;;;;;;;0.55;0.32;;;8.60;99.90;;;;;;5001635;28;20048;-67
2022/11/18 06:11:53;;;;;;;2.42;0.47;;;8.50;99.90;;;;;;4999416;28;20035;-68
2022/11/18 06:14:40;;;;;;;0.10;0.10;;;8.50;99.90;;;;;;5000855;28;20037;-67
2022/11/18 06:17:13;;;;;;;0.88;0.52;;;8.50;99.90;;;;;;4988749;28;20766;-68
2022/11/18 06:19:39;;;;;;;0.13;0.13;;;8.40;99.90;;;;;;5001362;28;20079;-67
2022/11/18 06:22:06;;;;;;;0.30;0.28;;;8.40;99.90;;;;;;5003808;28;20030;-66
2022/11/18 06:24:32;;;;;;;1.35;0.13;;;8.40;99.90;;;;;;5001717;28;20041;-67
2022/11/18 06:26:58;;;;;;;0.35;0.20;;;8.40;99.90;;;;;;5002718;28;20379;-69
2022/11/18 06:29:24;;;;;;;0.85;0.50;;;8.40;99.90;;;;;;4996481;28;20061;-68
2022/11/18 06:31:50;;;;;;;0.95;0.50;;;8.30;99.90;;;;;;4987871;28;20124;-67
2022/11/18 06:34:16;;;;;;;0.15;0.15;;;8.30;99.90;;;;;;4993124;28;20111;-69
2022/11/18 06:36:41;;;;;;;0.30;0.30;;;8.30;99.90;;;;;;4995842;28;20044;-68
2022/11/18 06:39:07;;;;;;;0.15;0.13;;;8.30;99.90;;;;;;5002184;28;20113;-70
2022/11/18 06:41:33;;;;;;;0.25;0.22;;;8.30;99.90;;;;;;5002342;28;20485;-69
2022/11/18 06:43:59;;;;;;;0.20;0.20;;;8.30;99.90;;;;;;4994722;28;20543;-68
2022/11/18 06:49:09;;;;;;;0.10;0.10;;;8.30;99.90;;;;;;4971518;28;20076;-67
2022/11/18 06:51:35;;;;;;;0.88;0.73;;;8.30;99.90;;;;;;5007565;28;20139;-67
2022/11/18 06:54:01;;;;;;;0.50;0.08;;;8.20;99.90;;;;;;4983793;28;20061;-70
2022/11/18 06:56:26;;;;;;;3.22;0.40;;;8.30;99.90;;;;;;4997182;28;20490;-67
2022/11/18 06:58:55;;;;;;;1.02;0.32;;;8.30;99.90;;;;;;4990624;28;20375;-67
2022/11/18 07:01:27;;;;;;;0.73;0.40;;;8.20;99.90;;;;;;4980469;28;20045;-68
2022/11/18 07:03:53;;;;;;;0.20;0.20;;;8.20;99.90;;;;;;4988302;28;20145;-67
2022/11/18 07:06:25;;;;;;;0.80;0.40;;;8.20;99.90;;;;;;4987213;28;20113;-68
2022/11/18 07:08:51;;;;;;;0.05;0.03;;;8.20;99.90;;;;;;4990055;28;20042;-68
2022/11/18 07:11:21;;;;;;;2.22;0.73;;;8.10;99.90;;;;;;4987764;28;20121;-68
2022/11/18 07:13:47;;;;;;;1.02;0.38;;;8.20;99.90;;;;;;4983723;28;20173;-68
2022/11/18 07:16:21;;;;;;;0.55;0.32;;;8.20;99.90;;;;;;4975400;28;20489;-68
2022/11/18 07:18:49;;;;;;;1.35;0.38;;;8.10;99.90;;;;;;4989331;28;20482;-68
2022/11/18 07:21:24;;;;;;;0.17;0.10;;;8.20;99.90;;;;;;4986271;28;20034;-68
2022/11/18 07:23:50;;;;;;;0.93;0.60;;;8.20;99.90;;;;;;4990184;28;20038;-68
2022/11/18 07:26:17;;;;;;;0.85;0.50;;;8.20;99.90;;;;;;4985950;28;20042;-68
2022/11/18 07:28:43;;;;;;;0.75;0.20;;;8.20;99.90;;;;;;4987459;28;20387;-68
2022/11/18 07:31:13;;;;;;;0.22;0.22;;;8.20;99.90;;;;;;4987793;28;20037;-68
2022/11/18 07:33:41;;;;;;;0.20;0.20;;;8.20;99.90;;;;;;4989559;28;20120;-68
2022/11/18 07:36:17;;;;;;;2.80;0.70;;;8.20;99.90;;;;;;4986469;28;20561;-68
2022/11/18 07:38:43;;;;;;;0.55;0.50;;;8.20;99.90;;;;;;4989026;28;20121;-69
2022/11/18 07:41:14;;;;;;;1.80;0.90;;;8.20;99.90;;;;;;4985563;28;20154;-69
2022/11/18 07:43:42;;;;;;;2.75;0.95;;;8.20;99.90;;;;;;4985535;28;20681;-68
2022/11/18 07:46:35;;;;;;;3.95;1.75;;;8.20;99.90;;;;;;4977962;28;20035;-68
2022/11/18 07:49:05;;;;;;;5.85;2.85;;;8.20;99.90;;;;;;4992631;28;20034;-69
2022/11/18 07:51:37;;;;;;;3.47;1.48;;;8.20;99.90;;;;;;4987772;28;20053;-68
2022/11/18 07:54:09;;;;;;;3.17;1.73;;;8.20;99.90;;;;;;4993561;28;20749;-68
2022/11/18 07:56:34;;;;;;;3.85;1.17;;;8.20;99.90;;;;;;4988071;28;20718;-68
2022/11/18 07:59:00;;;;;;;10.48;1.27;;;8.20;99.90;;;;;;4990847;28;20034;-70
2022/11/18 08:01:29;;;;;;;0.73;0.45;;;8.30;99.90;;;;;;4964298;28;20031;-69
2022/11/18 08:03:57;;;;;;;1.77;0.63;;;8.30;99.90;;;;;;4992209;28;20560;-69
2022/11/18 08:06:23;;;;;;;4.38;0.90;;;8.30;99.90;;;;;;4974765;28;20409;-68
2022/11/18 08:08:51;;;;;;;1.73;1.08;;;8.30;99.90;;;;;;4991194;28;20034;-67
2022/11/18 08:11:19;;;;;;;3.65;1.15;;;8.30;99.90;;;;;;4992881;28;20034;-68
2022/11/18 08:13:45;;;;;;;0.40;0.40;;;8.30;99.90;;;;;;4985382;28;20127;-67
2022/11/18 08:16:17;;;;;;;0.75;0.65;;;8.30;99.90;;;;;;4993511;28;20536;-68
2022/11/18 08:18:44;;;;;;;5.13;0.80;;;8.30;99.90;;;;;;4990163;28;20125;-69
2022/11/18 08:21:13;;;;;;;1.38;0.88;;;8.30;99.90;;;;;;4976155;28;20085;-69
2022/11/18 08:23:39;;;;;;;0.28;0.25;;;8.30;99.90;;;;;;4990099;28;20037;-70
2022/11/18 08:26:09;;;;;;;4.55;1.88;;;8.40;99.90;;;;;;4991965;28;20039;-68
2022/11/18 08:28:35;;;;;;;0.40;0.40;;;8.30;99.90;;;;;;4981983;28;20042;-68
2022/11/18 08:31:16;;;;;;;3.15;1.05;;;8.40;99.90;;;;;;4985691;28;20072;-67
2022/11/18 08:33:42;;;;;;;0.82;0.68;;;8.40;99.90;;;;;;4981771;28;20045;-67
2022/11/18 08:36:23;;;;;;;1.77;1.13;;;8.40;99.90;;;;;;4992234;28;20057;-69
2022/11/18 08:38:49;;;;;;;2.92;1.10;;;8.40;99.90;;;;;;4995952;23;20030;-70
2022/11/18 08:41:23;;;;;;;2.03;1.33;;;8.50;99.90;;;;;;4978212;28;20040;-69
2022/11/18 08:43:48;;;;;;;2.05;0.98;;;8.50;99.90;;;;;;4983954;28;20031;-69
2022/11/18 08:46:14;;;;;;;1.58;0.73;;;8.50;99.90;;;;;;4986351;28;20034;-69
2022/11/18 08:48:40;;;;;;;2.10;0.80;;;8.50;99.90;;;;;;4991710;28;20034;-70
2022/11/18 08:51:10;;;;;;;0.70;0.65;;;8.50;99.90;;;;;;4985297;28;20451;-70
2022/11/18 08:53:36;;;;;;;1.07;0.63;;;8.50;99.90;;;;;;4991012;28;20030;-68
2022/11/18 08:56:02;;;;;;;2.33;1.25;;;8.50;99.90;;;;;;4984148;28;20293;-68
2022/11/18 08:58:29;;;;;;;1.65;1.13;;;8.60;99.90;;;;;;4977427;28;20038;-73
2022/11/18 09:00:54;;;;;;;1.27;1.00;;;8.60;99.90;;;;;;4975471;28;20717;-69
2022/11/18 09:03:20;;;;;;;1.58;0.68;;;8.60;99.90;;;;;;4967730;28;20106;-69
2022/11/18 09:05:46;;;;;;;0.73;0.70;;;8.60;99.90;;;;;;4970690;28;20046;-72
2022/11/18 09:08:12;;;;;;;4.13;1.23;;;8.70;99.90;;;;;;4973096;28;20035;-69
2022/11/18 09:10:38;;;;;;;1.75;0.60;;;8.70;99.90;;;;;;4980990;28;20031;-70
2022/11/18 09:13:04;;;;;;;1.63;0.65;;;8.70;99.90;;;;;;4984392;28;20034;-69
2022/11/18 09:15:30;;;;;;;3.00;0.75;;;8.70;99.90;;;;;;4979398;28;20505;-71
2022/11/18 09:17:56;;;;;;;1.73;0.50;;;8.70;99.90;;;;;;4991239;28;20565;-69
2022/11/18 09:20:23;;;;;;;0.68;0.50;;;8.70;99.90;;;;;;4981012;28;20034;-68
2022/11/18 09:22:48;;;;;;;4.05;1.08;;;8.70;99.90;;;;;;4990643;28;20026;-69
2022/11/18 09:25:14;;;;;;;1.10;0.77;;;8.80;99.90;;;;;;4981315;28;20486;-69
2022/11/18 09:27:43;;;;;;;4.65;0.85;;;8.90;99.90;;;;;;4992055;28;20045;-69
2022/11/18 09:30:09;;;;;;;0.68;0.47;;;9.00;99.90;;;;;;4983644;28;20022;-69
2022/11/18 09:32:35;;;;;;;0.50;0.50;;;9.00;99.90;;;;;;4990772;28;20502;-69
2022/11/18 09:35:00;;;;;;;0.95;0.60;;;9.00;99.90;;;;;;4983558;28;20030;-69
2022/11/18 09:37:26;;;;;;;1.05;0.63;;;9.00;99.90;;;;;;4992009;28;20046;-69
2022/11/18 09:39:52;;;;;;;1.50;0.63;;;9.10;99.90;;;;;;4976225;28;20059;-69
2022/11/18 09:42:49;;;;;;;2.42;0.73;;;9.20;99.90;;;;;;4991851;28;20080;-69
2022/11/18 09:45:32;;;;;;;1.70;0.75;;;9.30;99.90;;;;;;4977384;28;20045;-70
2022/11/18 09:48:05;;;;;;;1.10;0.80;;;9.30;99.90;;;;;;4969334;28;20490;-69
2022/11/18 09:50:31;;;;;;;1.17;0.80;;;9.50;99.90;;;;;;4963616;28;20048;-69
2022/11/18 09:53:21;;;;;;;1.45;0.80;;;9.50;99.90;;;;;;4965166;28;20038;-69
2022/11/18 09:55:49;;;;;;;0.93;0.50;;;9.60;99.90;;;;;;4979611;28;20556;-68
2022/11/18 09:58:33;;;;;;;2.40;0.90;;;9.70;99.90;;;;;;4990043;28;20058;-68
2022/11/18 10:01:01;;;;;;;3.20;0.90;;;9.70;99.90;;;;;;4972016;28;20035;-68
2022/11/18 10:03:31;;;;;;;1.52;0.77;;;9.70;99.90;;;;;;4991786;28;20038;-68
2022/11/18 10:06:08;;;;;;;0.93;0.63;;;9.80;99.90;;;;;;4981165;28;20074;-68
2022/11/18 10:09:20;;;;;;;0.50;0.40;;;9.50;99.90;;;;;;4987095;28;20037;-68
2022/11/18 10:12:23;;;;;;;1.10;0.90;;;9.60;99.90;;;;;;4974556;28;20078;-69
2022/11/18 10:15:19;;;;;;;0.82;0.73;;;9.70;99.90;;;;;;4977138;28;20035;-69
2022/11/18 10:18:36;;;;;;;0.50;0.50;;;9.70;99.90;;;;;;4985545;28;20041;-70
2022/11/18 10:22:10;;;;;;;6.22;1.42;;;9.70;99.90;;;;;;4979986;28;20034;-70
2022/11/18 10:24:42;;;;;;;1.05;0.63;;;9.70;99.90;;;;;;4974364;28;20414;-70
2022/11/18 10:27:13;;;;;;;;;;;9.80;99.90;;;;;;4983044;28;20022;-69
2022/11/18 10:29:38;;;;;;;1.70;0.80;;;9.70;99.90;;;;;;4989980;28;19910;-69
2022/11/18 10:32:11;;;;;;;1.42;0.75;;;9.80;99.90;;;;;;4977965;28;20088;-70
2022/11/18 10:34:57;;;;;;;1.50;0.98;;;9.90;99.90;;;;;;4990046;28;20027;-70
2022/11/18 10:37:38;;;;;;;1.02;0.63;;;10.00;99.90;;;;;;4957576;28;20050;-69
2022/11/18 10:40:05;;;;;;;3.00;0.63;;;10.00;99.90;;;;;;4988050;28;20026;-69
2022/11/18 10:42:45;;;;;;;0.70;0.60;;;10.10;99.90;;;;;;4986651;28;20042;-69
2022/11/18 10:45:18;;;;;;;1.98;0.95;;;10.10;99.90;;;;;;4968444;28;20084;-69
2022/11/18 10:48:09;;;;;;;3.78;1.38;;;10.10;99.90;;;;;;4991658;28;20088;-69
2022/11/18 10:50:43;;;;;;;2.80;0.93;;;10.10;99.90;;;;;;4991133;28;20034;-68
2022/11/18 10:53:35;;;;;;;3.25;1.35;;;10.00;99.90;;;;;;4985066;28;20114;-68
2022/11/18 10:56:08;;;;;;;1.38;0.90;;;10.00;99.90;;;;;;4990038;28;20525;-69
2022/11/18 10:58:41;;;;;;;3.08;1.25;;;9.90;99.90;;;;;;4965109;28;20045;-69
2022/11/18 11:01:24;;;;;;;1.98;1.08;;;10.00;99.90;;;;;;4962075;28;20486;-69
2022/11/18 11:04:29;;;;;;;1.38;0.70;;;10.00;99.90;;;;;;4987514;28;20470;-69
2022/11/18 11:06:57;;;;;;;3.20;1.23;;;10.00;99.90;;;;;;4952981;28;20035;-68
2022/11/18 11:09:29;;;;;;;3.13;1.30;;;10.10;99.90;;;;;;4987969;28;20097;-69
2022/11/18 11:12:02;;;;;;;2.22;1.20;;;10.10;99.90;;;;;;4978427;28;20038;-68
2022/11/18 11:14:35;;;;;;;2.38;1.00;;;10.10;99.90;;;;;;4982847;28;20042;-68
2022/11/18 11:17:13;;;;;;;3.08;1.45;;;10.20;99.90;;;;;;4978791;28;20026;-69
2022/11/18 11:20:17;;;;;;;2.03;1.25;;;10.20;99.90;;;;;;4991515;28;20084;-69
2022/11/18 11:22:45;;;;;;;2.22;1.13;;;10.30;99.90;;;;;;4986862;28;20037;-69
2022/11/18 11:25:22;;;;;;;1.80;1.20;;;10.20;99.90;;;;;;4977046;28;20034;-69
2022/11/18 11:28:06;;;;;;;7.95;1.23;;;10.20;99.90;;;;;;4987000;28;20035;-72
2022/11/18 11:31:05;;;;;;;4.40;2.05;;;10.30;99.90;;;;;;4991222;28;20042;-71
2022/11/18 11:34:03;;;;;;;1.90;1.10;;;10.30;99.90;;;;;;4985507;28;20042;-70
2022/11/18 11:36:49;;;;;;;1.77;1.13;;;10.20;99.90;;;;;;4991837;28;20492;-69
2022/11/18 11:39:45;;;;;;;1.85;0.73;;;10.30;99.90;;;;;;4980100;28;20070;-68
2022/11/18 11:42:45;;;;;;;6.28;0.93;;;10.40;99.90;;;;;;4991647;28;20129;-68
2022/11/18 11:45:37;;;;;;;2.13;1.02;;;10.50;99.90;;;;;;4972625;28;20501;-68
2022/11/18 11:48:28;;;;;;;2.13;1.10;;;10.60;99.90;;;;;;4987071;28;20121;-68
2022/11/18 11:51:04;;;;;;;1.70;0.95;;;10.60;99.90;;;;;;4989982;28;20494;-69
2022/11/18 11:53:44;;;;;;;2.85;1.15;;;10.60;99.90;;;;;;4993994;28;20683;-68
2022/11/18 11:56:45;;;;;;;3.15;1.60;;;10.70;99.90;;;;;;4990382;28;20037;-69
2022/11/18 11:59:26;;;;;;;6.80;1.23;;;10.60;99.90;;;;;;4960765;28;20035;-68
2022/11/18 12:02:17;;;;;;;1.60;1.00;;;10.70;99.90;;;;;;4973030;28;20047;-69
2022/11/18 12:05:00;;;;;;;1.95;1.20;;;10.70;99.90;;;;;;4992965;28;20026;-69
2022/11/18 12:07:37;;;;;;;3.33;1.27;;;10.70;99.90;;;;;;4990147;28;20113;-69
2022/11/18 12:10:26;;;;;;;2.00;0.85;;;10.80;99.90;;;;;;4992273;28;20097;-69
2022/11/18 12:13:36;;;;;;;1.25;0.95;;;10.90;99.90;;;;;;4990504;28;20038;-69
2022/11/18 12:16:36;;;;;;;1.30;0.73;;;10.90;99.90;;;;;;4961624;28;20034;-69
2022/11/18 12:19:11;;;;;;;0.90;0.50;;;11.00;99.90;;;;;;4993359;28;20490;-69
2022/11/18 12:21:46;;;;;;;1.48;0.80;;;11.10;99.90;;;;;;4989730;28;20036;-69
2022/11/18 12:24:33;;;;;;;0.63;0.60;;;11.10;99.90;;;;;;4979436;28;20113;-71
2022/11/18 12:27:11;;;;;;;3.95;0.90;;;11.10;99.90;;;;;;4989453;28;20034;-70
2022/11/18 12:29:48;;;;;;;0.65;0.47;;;11.20;99.90;;;;;;4991892;28;20058;-69
2022/11/18 12:32:54;;;;;;;0.45;0.38;;;11.20;99.90;;;;;;4990833;28;20117;-69
2022/11/18 12:35:31;;;;;;;2.35;0.50;;;11.30;99.90;;;;;;4934110;29;20039;-69
2022/11/18 12:37:59;;;;;;;0.95;0.47;;;11.30;99.90;;;;;;4989606;28;20093;-69
2022/11/18 12:40:43;;;;;;;11.30;1.25;;;11.30;99.90;;;;;;4992180;28;20039;-70
2022/11/18 12:46:30;;;;;;;6.72;1.02;;;11.40;99.90;;;;;;4977295;28;20115;-70
2022/11/18 12:48:56;;;;;;;1.65;0.60;;;11.40;99.90;;;;;;4991692;28;20121;-69
2022/11/18 12:51:23;;;;;;;1.83;0.68;;;11.50;99.90;;;;;;4990477;28;20061;-69
2022/11/18 12:53:52;;;;;;;0.98;0.47;;;11.50;99.90;;;;;;4993002;28;20410;-69
2022/11/18 12:56:21;;;;;;;4.15;0.52;;;11.50;99.90;;;;;;4990246;28;20462;-68
2022/11/18 12:58:51;;;;;;;0.22;0.20;;;11.50;99.90;;;;;;4991373;28;20046;-68
2022/11/18 13:01:29;;;;;;;0.52;0.43;;;11.30;99.90;;;;;;4990312;28;20567;-69
2022/11/18 13:04:21;;;;;;;0.90;0.47;;;11.30;99.90;;;;;;4991677;28;20406;-68
2022/11/18 13:06:47;;;;;;;3.65;0.52;;;11.10;99.90;;;;;;4989912;28;20031;-69
2022/11/18 13:09:19;;;;;;;1.48;0.80;;;11.10;99.90;;;;;;4991915;28;20498;-69
2022/11/18 13:11:58;;;;;;;1.48;1.05;;;11.00;99.90;;;;;;4990225;28;20056;-68
2022/11/18 13:20:34;;;;;;;0.52;0.40;;;11.20;99.90;;;;;;4953468;29;20118;-69
2022/11/18 13:26:32;;;;;;;3.60;0.45;;;11.30;99.90;;;;;;4989622;28;20050;-69
2022/11/18 13:29:37;;;;;;;2.17;0.40;;;11.40;99.90;;;;;;4990688;28;20031;-69
2022/11/18 13:32:23;;;;;;;1.58;1.13;;;11.30;99.90;;;;;;4988783;28;20034;-69
2022/11/18 13:34:56;;;;;;;0.80;0.40;;;11.40;99.90;;;;;;4991115;28;20090;-70
2022/11/18 13:37:28;;;;;;;3.70;1.10;;;11.40;99.90;;;;;;4987364;28;20041;-70
2022/11/18 13:39:55;;;;;;;2.47;0.45;;;11.50;99.90;;;;;;4989997;28;20034;-70
2022/11/18 13:42:24;;;;;;;1.20;0.80;;;11.50;99.90;;;;;;4988142;28;20084;-69
2022/11/18 13:44:57;;;;;;;2.92;0.88;;;11.40;99.90;;;;;;4977314;28;20022;-69
2022/11/18 13:47:47;;;;;;;0.40;0.40;;;11.40;99.90;;;;;;4986196;28;20053;-69
2022/11/18 13:50:38;;;;;;;2.47;0.47;;;11.30;99.90;;;;;;4955034;28;20037;-70
2022/11/18 13:53:31;;;;;;;6.45;1.05;;;11.30;99.90;;;;;;4970726;28;20030;-69
2022/11/18 13:56:02;;;;;;;3.30;0.75;;;11.30;99.90;;;;;;4972964;28;20106;-70